Time;durP1;ratioP1;P1;durP2;ratioP2;P2;SDS_P1;SDS_P2;PMS_P1;PMS_P2;Temp;Humidity;BMP_temperature;BMP_pressure;BME280_temperature;BME280_humidity;BME280_pressure;Samples;Min_cycle;Max_cycle;Signal;HPM_P1;HPM_P2
2021/03/13 00:00:31;;;;;;;19.47;4.63;;;;;;;;;;5025497;28;20210;-70
2021/03/13 00:02:58;;;;;;;14.67;4.00;;;;;;;;;;5033642;28;20216;-70
2021/03/13 00:05:31;;;;;;;24.03;4.70;;;;;;;;;;5025388;28;20205;-71
2021/03/13 00:07:56;;;;;;;13.77;3.80;;;;;;;;;;5035148;28;20181;-70
2021/03/13 00:10:22;;;;;;;9.60;3.10;;;;;;;;;;5025507;28;20591;-70
2021/03/13 00:12:48;;;;;;;18.13;4.30;;;;;;;;;;5030365;28;20740;-71
2021/03/13 00:15:15;;;;;;;17.00;3.80;;;;;;;;;;5032360;28;20186;-70
2021/03/13 00:17:45;;;;;;;11.57;3.13;;;;;;;;;;5029193;28;20663;-70
2021/03/13 00:20:13;;;;;;;12.70;3.70;;;;;;;;;;5032866;28;20517;-70
2021/03/13 00:22:38;;;;;;;15.90;3.80;;;;;;;;;;5028440;28;20221;-70
2021/03/13 00:25:06;;;;;;;19.63;3.30;;;;;;;;;;5036796;28;20199;-70
2021/03/13 00:27:31;;;;;;;13.67;3.20;;;;;;;;;;5024005;28;20186;-70
2021/03/13 00:29:57;;;;;;;15.90;3.40;;;;;;;;;;5035431;28;20193;-70
2021/03/13 00:32:22;;;;;;;13.70;3.13;;;;;;;;;;5027826;28;20194;-70
2021/03/13 00:34:48;;;;;;;13.50;3.10;;;;;;;;;;5030251;28;20642;-70
2021/03/13 00:37:13;;;;;;;14.40;3.73;;;;;;;;;;5026192;28;20974;-69
2021/03/13 00:39:38;;;;;;;17.20;3.07;;;;;;;;;;5043240;28;20336;-70
2021/03/13 00:42:04;;;;;;;16.07;3.03;;;;;;;;;;5027022;28;20212;-70
2021/03/13 00:44:29;;;;;;;18.93;3.30;;;;;;;;;;5034063;28;20182;-70
2021/03/13 00:46:55;;;;;;;13.27;3.20;;;;;;;;;;5034600;28;20265;-70
2021/03/13 00:49:20;;;;;;;12.50;2.70;;;;;;;;;;5030063;28;20181;-70
2021/03/13 00:51:45;;;;;;;14.60;3.00;;;;;;;;;;5032807;28;20255;-70
2021/03/13 00:54:11;;;;;;;10.13;3.20;;;;;;;;;;5027177;28;20186;-70
2021/03/13 00:56:36;;;;;;;14.63;2.77;;;;;;;;;;5032727;28;20186;-70
2021/03/13 00:59:01;;;;;;;12.73;2.70;;;;;;;;;;5032462;28;20375;-69
2021/03/13 01:01:27;;;;;;;16.03;3.30;;;;;;;;;;5038035;28;20272;-69
2021/03/13 01:03:52;;;;;;;13.00;2.47;;;;;;;;;;5033237;28;20217;-70
2021/03/13 01:06:19;;;;;;;14.43;3.00;;;;;;;;;;5039398;28;20197;-69
2021/03/13 01:08:44;;;;;;;12.57;2.40;;;;;;;;;;5022611;28;20682;-69
2021/03/13 01:11:09;;;;;;;17.83;3.10;;;;;;;;;;5034496;28;20186;-70
2021/03/13 01:13:35;;;;;;;10.23;2.47;;;;;;;;;;5031152;28;20220;-70
2021/03/13 01:16:00;;;;;;;12.73;2.73;;;;;;;;;;5038728;28;20645;-70
2021/03/13 01:18:25;;;;;;;15.57;3.30;;;;;;;;;;5026754;28;20223;-70
2021/03/13 01:20:51;;;;;;;13.97;2.97;;;;;;;;;;5040471;28;20236;-69
2021/03/13 01:23:17;;;;;;;12.50;2.47;;;;;;;;;;5035767;28;20704;-70
2021/03/13 01:25:42;;;;;;;13.17;2.53;;;;;;;;;;5027716;28;20550;-70
2021/03/13 01:28:07;;;;;;;12.27;2.63;;;;;;;;;;5038151;28;20591;-70
2021/03/13 01:30:33;;;;;;;9.97;2.40;;;;;;;;;;5026561;28;20590;-68
2021/03/13 01:32:58;;;;;;;13.70;2.57;;;;;;;;;;5038136;28;20199;-69
2021/03/13 01:35:25;;;;;;;10.20;2.20;;;;;;;;;;5036237;28;20271;-70
2021/03/13 01:37:50;;;;;;;12.63;3.03;;;;;;;;;;5035241;28;20548;-70
2021/03/13 01:40:17;;;;;;;16.17;2.43;;;;;;;;;;5030473;28;20232;-70
2021/03/13 01:42:47;;;;;;;9.27;2.13;;;;;;;;;;5036264;28;20190;-69
2021/03/13 01:45:14;;;;;;;13.33;2.40;;;;;;;;;;5034340;28;20185;-70
2021/03/13 01:47:40;;;;;;;16.03;3.00;;;;;;;;;;5036530;28;20197;-70
2021/03/13 01:50:08;;;;;;;13.60;2.57;;;;;;;;;;5032401;28;20177;-70
2021/03/13 01:52:33;;;;;;;9.37;2.03;;;;;;;;;;5037159;28;20464;-69
2021/03/13 01:55:01;;;;;;;12.77;2.63;;;;;;;;;;5041954;28;20554;-70
2021/03/13 01:57:27;;;;;;;10.83;2.17;;;;;;;;;;5027439;28;20194;-70
2021/03/13 01:59:52;;;;;;;12.67;2.20;;;;;;;;;;5034700;28;20213;-70
2021/03/13 02:02:18;;;;;;;8.33;2.90;;;;;;;;;;5027584;28;20216;-70
2021/03/13 02:04:43;;;;;;;10.23;2.20;;;;;;;;;;5038606;28;20209;-70
2021/03/13 02:07:25;;;;;;;13.33;2.00;;;;;;;;;;5036527;28;20183;-69
2021/03/13 02:10:10;;;;;;;10.50;2.00;;;;;;;;;;5045371;28;20260;-70
2021/03/13 02:12:45;;;;;;;14.17;2.20;;;;;;;;;;5030031;28;20189;-70
2021/03/13 02:15:25;;;;;;;15.93;2.23;;;;;;;;;;5038008;28;20217;-69
2021/03/13 02:18:22;;;;;;;9.63;2.13;;;;;;;;;;5032924;28;20190;-69
2021/03/13 02:21:28;;;;;;;9.67;1.83;;;;;;;;;;5036318;28;20264;-69
2021/03/13 02:24:08;;;;;;;10.40;2.60;;;;;;;;;;5051715;28;20660;-69
2021/03/13 02:27:11;;;;;;;9.50;2.13;;;;;;;;;;5038460;28;20588;-67
2021/03/13 02:29:46;;;;;;;19.90;3.23;;;;;;;;;;5020716;28;20205;-70
2021/03/13 02:32:33;;;;;;;11.67;2.73;;;;;;;;;;5031098;28;20656;-70
2021/03/13 02:35:06;;;;;;;11.20;2.43;;;;;;;;;;5038719;28;20177;-68
2021/03/13 02:37:40;;;;;;;15.13;2.57;;;;;;;;;;5035131;28;20264;-70
2021/03/13 02:40:07;;;;;;;10.63;2.90;;;;;;;;;;5038190;28;20234;-70
2021/03/13 02:42:39;;;;;;;13.50;2.63;;;;;;;;;;5040851;28;20539;-70
2021/03/13 02:45:07;;;;;;;10.73;2.53;;;;;;;;;;5042808;28;20196;-70
2021/03/13 02:47:34;;;;;;;14.20;2.87;;;;;;;;;;5041480;28;20182;-70
2021/03/13 02:50:01;;;;;;;9.90;3.07;;;;;;;;;;5032882;28;20193;-70
2021/03/13 02:52:27;;;;;;;11.73;3.40;;;;;;;;;;5039234;28;20265;-70
2021/03/13 02:54:54;;;;;;;12.63;3.00;;;;;;;;;;5036616;28;20595;-70
2021/03/13 02:57:22;;;;;;;11.37;2.97;;;;;;;;;;5042412;28;20185;-70
2021/03/13 02:59:48;;;;;;;14.73;3.40;;;;;;;;;;5034266;28;20319;-70
2021/03/13 03:02:15;;;;;;;10.80;3.07;;;;;;;;;;5039946;28;20189;-69
2021/03/13 03:04:41;;;;;;;10.07;2.87;;;;;;;;;;5035552;28;20707;-69
2021/03/13 03:07:09;;;;;;;10.67;3.10;;;;;;;;;;5034848;28;20611;-70
2021/03/13 03:09:35;;;;;;;9.83;2.90;;;;;;;;;;5034825;28;20185;-69
2021/03/13 03:12:01;;;;;;;11.30;2.77;;;;;;;;;;5038458;28;20611;-70
2021/03/13 03:14:27;;;;;;;7.93;3.13;;;;;;;;;;5034634;28;20190;-70
2021/03/13 03:16:57;;;;;;;6.90;2.83;;;;;;;;;;5040166;28;20247;-69
2021/03/13 03:19:24;;;;;;;7.50;2.67;;;;;;;;;;5041198;28;20178;-70
2021/03/13 03:21:50;;;;;;;4.20;2.30;;;;;;;;;;5029250;28;20193;-70
2021/03/13 03:24:16;;;;;;;10.57;3.03;;;;;;;;;;5041698;28;20235;-69
2021/03/13 03:26:41;;;;;;;13.10;3.20;;;;;;;;;;5032288;28;20228;-70
2021/03/13 03:29:09;;;;;;;9.17;2.83;;;;;;;;;;5041050;28;20190;-70
2021/03/13 03:31:34;;;;;;;10.37;2.80;;;;;;;;;;5032675;28;20193;-71
2021/03/13 03:34:00;;;;;;;9.77;2.83;;;;;;;;;;5040113;28;20231;-70
2021/03/13 03:36:25;;;;;;;7.13;2.70;;;;;;;;;;5035269;28;20189;-71
2021/03/13 03:38:54;;;;;;;9.53;3.13;;;;;;;;;;5036416;28;20234;-71
2021/03/13 03:41:20;;;;;;;8.17;2.80;;;;;;;;;;5026970;28;20202;-72
2021/03/13 03:43:51;;;;;;;6.00;2.90;;;;;;;;;;5040171;28;20714;-72
2021/03/13 03:46:17;;;;;;;6.73;2.60;;;;;;;;;;5032490;28;20232;-71
2021/03/13 03:48:44;;;;;;;6.50;2.70;;;;;;;;;;5043486;28;20205;-72
2021/03/13 03:51:13;;;;;;;6.60;3.27;;;;;;;;;;5029019;28;20429;-71
2021/03/13 03:53:44;;;;;;;7.70;3.50;;;;;;;;;;5040197;28;20189;-72
2021/03/13 03:56:11;;;;;;;7.53;3.27;;;;;;;;;;5036034;28;20671;-72
2021/03/13 03:58:43;;;;;;;8.63;3.40;;;;;;;;;;5034586;28;20587;-71
2021/03/13 04:01:10;;;;;;;7.17;3.53;;;;;;;;;;5035933;28;20232;-71
2021/03/13 04:03:43;;;;;;;5.53;3.43;;;;;;;;;;5028839;28;20705;-71
2021/03/13 04:06:11;;;;;;;6.33;3.40;;;;;;;;;;5039959;28;20185;-71
2021/03/13 04:08:38;;;;;;;12.00;4.00;;;;;;;;;;5032637;28;20251;-71
2021/03/13 04:11:05;;;;;;;6.60;3.33;;;;;;;;;;5044964;28;20589;-71
2021/03/13 04:13:31;;;;;;;5.80;3.17;;;;;;;;;;5030159;28;20220;-70
2021/03/13 04:15:57;;;;;;;5.93;3.57;;;;;;;;;;5036834;28;20189;-71
2021/03/13 04:18:22;;;;;;;10.00;4.10;;;;;;;;;;5023617;28;20601;-69
2021/03/13 04:20:50;;;;;;;7.47;4.10;;;;;;;;;;5038847;28;20292;-71
2021/03/13 04:23:21;;;;;;;5.40;3.43;;;;;;;;;;5029357;28;20217;-71
2021/03/13 04:25:49;;;;;;;7.57;3.50;;;;;;;;;;5039318;28;20194;-71
2021/03/13 04:28:15;;;;;;;8.53;3.57;;;;;;;;;;5024970;28;20220;-71
2021/03/13 04:30:41;;;;;;;7.10;3.60;;;;;;;;;;5037184;28;20688;-71
2021/03/13 04:33:06;;;;;;;7.57;3.60;;;;;;;;;;5029663;28;20311;-71
2021/03/13 04:35:33;;;;;;;5.27;3.50;;;;;;;;;;5041352;28;20195;-71
2021/03/13 04:37:59;;;;;;;5.80;3.23;;;;;;;;;;5042317;28;20200;-72
2021/03/13 04:40:25;;;;;;;8.50;3.80;;;;;;;;;;5028421;28;20521;-71
2021/03/13 04:42:51;;;;;;;8.20;3.83;;;;;;;;;;5035955;28;20244;-71
2021/03/13 04:45:17;;;;;;;4.37;3.33;;;;;;;;;;5033135;28;20291;-71
2021/03/13 04:47:45;;;;;;;7.33;3.47;;;;;;;;;;5036636;28;20294;-71
2021/03/13 04:50:13;;;;;;;6.90;3.67;;;;;;;;;;5025711;28;20196;-71
2021/03/13 04:52:39;;;;;;;5.03;3.37;;;;;;;;;;5032878;28;20186;-71
2021/03/13 04:55:05;;;;;;;8.43;3.30;;;;;;;;;;5025739;28;20200;-72
2021/03/13 04:57:30;;;;;;;6.93;3.43;;;;;;;;;;5030985;28;20634;-72
2021/03/13 04:59:56;;;;;;;5.43;3.40;;;;;;;;;;5028490;28;20274;-71
2021/03/13 05:02:21;;;;;;;6.53;3.60;;;;;;;;;;5032042;28;20220;-71
2021/03/13 05:04:46;;;;;;;4.93;3.40;;;;;;;;;;5026771;28;20221;-71
2021/03/13 05:07:11;;;;;;;8.47;3.97;;;;;;;;;;5034976;28;20215;-72
2021/03/13 05:09:37;;;;;;;8.57;4.30;;;;;;;;;;5031437;28;20250;-70
2021/03/13 05:12:02;;;;;;;7.57;4.17;;;;;;;;;;5024246;28;20338;-70
2021/03/13 05:14:28;;;;;;;8.23;4.10;;;;;;;;;;5032929;28;20717;-70
2021/03/13 05:16:53;;;;;;;9.47;4.03;;;;;;;;;;5028688;28;20197;-70
2021/03/13 05:19:19;;;;;;;5.03;3.70;;;;;;;;;;5028925;28;21507;-70
2021/03/13 05:21:44;;;;;;;8.03;3.50;;;;;;;;;;5027069;28;20190;-69
2021/03/13 05:24:10;;;;;;;5.77;3.47;;;;;;;;;;5033652;28;20193;-69
2021/03/13 05:26:35;;;;;;;9.57;3.70;;;;;;;;;;5023555;28;20288;-69
2021/03/13 05:29:01;;;;;;;8.33;3.40;;;;;;;;;;5031167;28;20189;-69
2021/03/13 05:31:26;;;;;;;6.27;3.10;;;;;;;;;;5027523;28;20193;-69
2021/03/13 05:33:52;;;;;;;6.07;3.03;;;;;;;;;;5033968;28;20186;-69
2021/03/13 05:36:17;;;;;;;6.83;2.93;;;;;;;;;;5034947;28;20216;-71
2021/03/13 05:38:42;;;;;;;6.50;3.20;;;;;;;;;;5019382;28;20233;-69
2021/03/13 05:41:09;;;;;;;6.60;3.10;;;;;;;;;;5037538;28;20221;-71
2021/03/13 05:43:35;;;;;;;5.00;3.30;;;;;;;;;;5025137;28;20318;-71
2021/03/13 05:46:02;;;;;;;5.67;3.00;;;;;;;;;;5036028;28;20241;-72
2021/03/13 05:48:30;;;;;;;5.50;2.60;;;;;;;;;;5026034;28;20193;-72
2021/03/13 05:50:58;;;;;;;7.23;3.10;;;;;;;;;;5036742;28;20174;-70
2021/03/13 05:53:24;;;;;;;5.43;2.73;;;;;;;;;;5025229;28;20181;-70
2021/03/13 05:55:53;;;;;;;8.63;3.20;;;;;;;;;;5035655;28;20182;-72
2021/03/13 05:58:20;;;;;;;5.63;2.97;;;;;;;;;;5027491;28;20279;-72
2021/03/13 06:00:46;;;;;;;5.40;2.50;;;;;;;;;;5036680;28;20719;-70
2021/03/13 06:03:11;;;;;;;6.40;2.57;;;;;;;;;;5027211;28;20177;-71
2021/03/13 06:05:37;;;;;;;4.97;2.40;;;;;;;;;;5033323;28;20732;-71
2021/03/13 06:08:03;;;;;;;8.80;2.57;;;;;;;;;;5028230;28;20212;-72
2021/03/13 06:10:28;;;;;;;5.40;2.47;;;;;;;;;;5033170;28;20269;-71
2021/03/13 06:12:53;;;;;;;3.27;2.00;;;;;;;;;;5035075;28;20193;-71
2021/03/13 06:15:20;;;;;;;3.83;1.73;;;;;;;;;;5025658;28;20201;-70
2021/03/13 06:18:01;;;;;;;4.83;1.70;;;;;;;;;;5031937;28;20706;-70
2021/03/13 06:20:36;;;;;;;4.47;1.50;;;;;;;;;;5025741;28;20224;-71
2021/03/13 06:23:21;;;;;;;3.67;1.50;;;;;;;;;;5032208;28;20708;-71
2021/03/13 06:25:48;;;;;;;2.87;1.60;;;;;;;;;;5024429;28;20197;-72
2021/03/13 06:28:17;;;;;;;3.83;2.07;;;;;;;;;;5034791;28;20197;-71
2021/03/13 06:30:48;;;;;;;6.57;1.90;;;;;;;;;;5027343;28;20658;-71
2021/03/13 06:33:23;;;;;;;4.13;1.73;;;;;;;;;;5034262;28;20171;-71
2021/03/13 06:35:50;;;;;;;6.03;1.73;;;;;;;;;;5027468;28;20178;-71
2021/03/13 06:38:20;;;;;;;6.60;1.90;;;;;;;;;;5030638;28;20182;-72
2021/03/13 06:40:47;;;;;;;4.30;1.70;;;;;;;;;;5026166;28;20264;-72
2021/03/13 06:43:23;;;;;;;5.98;2.07;;;;;;;;;;4613647;28;10002836;-73
2021/03/13 06:46:01;;;;;;;7.80;1.93;;;;;;;;;;5022477;28;20680;-72
2021/03/13 06:48:31;;;;;;;5.43;2.43;;;;;;;;;;5026339;28;20185;-74
2021/03/13 06:51:14;;;;;;;4.87;1.77;;;;;;;;;;5027264;28;20253;-72
2021/03/13 06:53:39;;;;;;;4.73;1.70;;;;;;;;;;5035218;28;20288;-71
2021/03/13 06:56:12;;;;;;;2.97;0.93;;;;;;;;;;5025767;28;20288;-71
2021/03/13 06:58:38;;;;;;;2.10;0.50;;;;;;;;;;5038583;28;20201;-70
2021/03/13 07:01:08;;;;;;;3.73;0.77;;;;;;;;;;5028916;28;20210;-70
2021/03/13 07:03:47;;;;;;;2.40;0.70;;;;;;;;;;5040754;28;20216;-70
2021/03/13 07:06:19;;;;;;;2.63;0.40;;;;;;;;;;5025918;28;20204;-69
2021/03/13 07:08:49;;;;;;;2.67;0.33;;;;;;;;;;5030185;28;20194;-69
2021/03/13 07:11:16;;;;;;;2.93;0.47;;;;;;;;;;5026894;28;20182;-70
2021/03/13 07:13:54;;;;;;;1.50;0.40;;;;;;;;;;5033195;28;20279;-69
2021/03/13 07:16:33;;;;;;;2.37;0.50;;;;;;;;;;5032838;28;20186;-68
2021/03/13 07:19:10;;;;;;;1.57;0.40;;;;;;;;;;5032835;28;20587;-69
2021/03/13 07:21:38;;;;;;;3.10;0.50;;;;;;;;;;5029988;28;22236;-69
2021/03/13 07:24:05;;;;;;;4.17;1.23;;;;;;;;;;5029214;28;20232;-70
2021/03/13 07:26:39;;;;;;;3.67;0.40;;;;;;;;;;5031734;28;20205;-68
2021/03/13 07:29:07;;;;;;;3.50;0.40;;;;;;;;;;5024055;28;20189;-70
2021/03/13 07:31:39;;;;;;;3.27;0.60;;;;;;;;;;5030081;28;20192;-69
2021/03/13 07:34:06;;;;;;;5.43;0.90;;;;;;;;;;5027618;28;20185;-70
2021/03/13 07:36:36;;;;;;;4.83;0.60;;;;;;;;;;5032702;28;20197;-69
2021/03/13 07:39:08;;;;;;;2.80;0.50;;;;;;;;;;5024729;28;20700;-69
2021/03/13 07:41:37;;;;;;;7.13;0.80;;;;;;;;;;5032631;28;20293;-68
2021/03/13 07:44:04;;;;;;;4.33;0.97;;;;;;;;;;5024602;28;20251;-68
2021/03/13 07:46:31;;;;;;;3.63;0.50;;;;;;;;;;5031272;28;20208;-67
2021/03/13 07:48:57;;;;;;;3.53;0.80;;;;;;;;;;5023924;28;20202;-69
2021/03/13 07:51:23;;;;;;;3.80;0.60;;;;;;;;;;5033873;28;20188;-68
2021/03/13 07:53:49;;;;;;;4.03;0.90;;;;;;;;;;5025041;28;20558;-68
2021/03/13 07:56:15;;;;;;;3.27;0.70;;;;;;;;;;5032868;28;20193;-69
2021/03/13 07:58:41;;;;;;;3.83;0.70;;;;;;;;;;5022962;28;20193;-70
2021/03/13 08:01:08;;;;;;;6.33;1.07;;;;;;;;;;5030694;28;20698;-69
2021/03/13 08:03:34;;;;;;;12.53;1.17;;;;;;;;;;5030051;28;20205;-72
2021/03/13 08:06:02;;;;;;;11.80;2.13;;;;;;;;;;5025070;28;20222;-70
2021/03/13 08:08:44;;;;;;;8.37;1.60;;;;;;;;;;5029471;28;20198;-70
2021/03/13 08:11:16;;;;;;;4.37;0.90;;;;;;;;;;5021512;28;20269;-70
2021/03/13 08:13:42;;;;;;;9.33;1.17;;;;;;;;;;5031012;28;20197;-70
2021/03/13 08:16:12;;;;;;;14.37;1.73;;;;;;;;;;5023849;28;20204;-70
2021/03/13 08:18:47;;;;;;;7.90;1.70;;;;;;;;;;5033965;28;20253;-70
2021/03/13 08:21:19;;;;;;;8.00;1.20;;;;;;;;;;5022876;28;20367;-70
2021/03/13 08:23:53;;;;;;;6.97;1.43;;;;;;;;;;5030448;28;20316;-71
2021/03/13 08:26:21;;;;;;;9.20;1.30;;;;;;;;;;5025404;28;20214;-69
2021/03/13 08:28:47;;;;;;;8.50;1.20;;;;;;;;;;5038116;28;20193;-69
2021/03/13 08:33:54;;;;;;;8.57;1.43;;;;;;;;;;5029644;28;20267;-70
2021/03/13 08:36:24;;;;;;;8.83;1.57;;;;;;;;;;5026143;28;20548;-70
2021/03/13 08:39:00;;;;;;;10.10;1.70;;;;;;;;;;5027159;28;20234;-69
2021/03/13 08:41:43;;;;;;;11.77;2.15;;;;;;;;;;5028283;28;20209;-69
2021/03/13 08:44:11;;;;;;;8.30;1.80;;;;;;;;;;5032406;28;20249;-68
2021/03/13 08:46:47;;;;;;;14.63;2.03;;;;;;;;;;5029383;28;20189;-70
2021/03/13 08:49:23;;;;;;;8.93;1.60;;;;;;;;;;5034832;28;20213;-69
2021/03/13 08:51:49;;;;;;;11.50;1.50;;;;;;;;;;5027372;28;20229;-69
2021/03/13 08:54:48;;;;;;;11.40;1.58;;;;;;;;;;5032389;28;20198;-69
2021/03/13 08:57:14;;;;;;;9.73;1.70;;;;;;;;;;5027219;28;20633;-69
2021/03/13 08:59:45;;;;;;;13.20;2.27;;;;;;;;;;5030562;28;20295;-68
2021/03/13 09:02:13;;;;;;;9.73;1.60;;;;;;;;;;5021300;28;20266;-69
2021/03/13 09:04:52;;;;;;;10.27;2.23;;;;;;;;;;5038021;28;20209;-67
2021/03/13 09:07:19;;;;;;;11.53;2.60;;;;;;;;;;5027866;28;20379;-69
2021/03/13 09:09:46;;;;;;;9.93;2.13;;;;;;;;;;5029619;28;20214;-69
2021/03/13 09:12:13;;;;;;;9.87;2.00;;;;;;;;;;5033250;28;20224;-69
2021/03/13 09:14:50;;;;;;;12.60;2.00;;;;;;;;;;5023530;28;20182;-69
2021/03/13 09:17:21;;;;;;;15.53;2.30;;;;;;;;;;5035374;28;20177;-70
2021/03/13 09:19:48;;;;;;;13.80;1.60;;;;;;;;;;5026481;28;20533;-68
2021/03/13 09:22:17;;;;;;;14.80;2.23;;;;;;;;;;5037698;28;20649;-69
2021/03/13 09:24:51;;;;;;;8.07;1.63;;;;;;;;;;5027295;28;20710;-69
2021/03/13 09:27:16;;;;;;;11.13;1.80;;;;;;;;;;5029306;28;20178;-69
2021/03/13 09:29:42;;;;;;;12.97;2.00;;;;;;;;;;5026758;28;20706;-68
2021/03/13 09:32:10;;;;;;;13.27;2.20;;;;;;;;;;5031946;28;20670;-69
2021/03/13 09:34:37;;;;;;;12.73;2.10;;;;;;;;;;5027654;28;20178;-68
2021/03/13 09:37:16;;;;;;;12.43;1.90;;;;;;;;;;5036978;28;20322;-67
2021/03/13 09:39:44;;;;;;;8.30;1.52;;;;;;;;;;5025188;28;20229;-70
2021/03/13 09:42:17;;;;;;;6.28;1.50;;;;;;;;;;5036847;28;20201;-68
2021/03/13 09:44:48;;;;;;;12.00;1.93;;;;;;;;;;5026976;28;20188;-69
2021/03/13 09:47:28;;;;;;;10.52;1.95;;;;;;;;;;5035195;28;20212;-69
2021/03/13 09:49:56;;;;;;;10.67;2.00;;;;;;;;;;5027503;28;20174;-68
2021/03/13 09:52:25;;;;;;;7.70;1.60;;;;;;;;;;5036182;28;20202;-67
2021/03/13 09:55:05;;;;;;;14.87;2.90;;;;;;;;;;5032002;28;20616;-69
2021/03/13 09:57:32;;;;;;;13.43;2.57;;;;;;;;;;5030857;28;20181;-69
2021/03/13 09:59:58;;;;;;;10.60;2.13;;;;;;;;;;5020035;28;20197;-68
2021/03/13 10:02:24;;;;;;;13.60;2.60;;;;;;;;;;5032271;28;20186;-69
2021/03/13 10:04:51;;;;;;;15.10;2.07;;;;;;;;;;5030986;28;20787;-69
2021/03/13 10:07:17;;;;;;;12.10;2.00;;;;;;;;;;5020970;28;20190;-69
2021/03/13 10:10:00;;;;;;;9.00;1.60;;;;;;;;;;5031738;28;20190;-69
2021/03/13 10:12:37;;;;;;;8.63;1.90;;;;;;;;;;5018240;28;20178;-69
2021/03/13 10:15:19;;;;;;;15.53;2.30;;;;;;;;;;5033785;28;20193;-69
2021/03/13 10:17:48;;;;;;;19.43;2.37;;;;;;;;;;5022446;28;20597;-70
2021/03/13 10:20:14;;;;;;;11.33;2.10;;;;;;;;;;5035162;28;20205;-70
2021/03/13 10:22:39;;;;;;;8.93;2.07;;;;;;;;;;5021166;28;20352;-70
2021/03/13 10:25:08;;;;;;;15.40;2.50;;;;;;;;;;5031172;28;20189;-70
2021/03/13 10:27:35;;;;;;;13.70;2.87;;;;;;;;;;5028022;28;20189;-69
2021/03/13 10:30:04;;;;;;;15.30;3.83;;;;;;;;;;5035817;28;20196;-70
2021/03/13 10:32:31;;;;;;;12.73;2.93;;;;;;;;;;5024590;28;20209;-70
2021/03/13 10:35:13;;;;;;;9.23;2.00;;;;;;;;;;5038620;28;20177;-70
2021/03/13 10:37:41;;;;;;;13.40;2.03;;;;;;;;;;5024458;28;20198;-69
2021/03/13 10:40:27;;;;;;;11.53;1.63;;;;;;;;;;5033971;28;20229;-70
2021/03/13 10:43:07;;;;;;;11.97;2.20;;;;;;;;;;5025184;28;20189;-70
2021/03/13 10:45:33;;;;;;;12.90;2.37;;;;;;;;;;5036652;28;20189;-70
2021/03/13 10:48:07;;;;;;;21.17;2.57;;;;;;;;;;5024816;28;20197;-69
2021/03/13 10:50:39;;;;;;;14.50;2.63;;;;;;;;;;5032118;28;20662;-70
2021/03/13 10:53:27;;;;;;;15.67;2.50;;;;;;;;;;5030376;28;20696;-69
2021/03/13 10:55:54;;;;;;;12.70;2.73;;;;;;;;;;5029210;28;20186;-70
2021/03/13 10:58:45;;;;;;;17.43;3.10;;;;;;;;;;5030571;28;20192;-70
2021/03/13 11:01:11;;;;;;;14.90;2.90;;;;;;;;;;5036058;28;20217;-70
2021/03/13 11:03:36;;;;;;;17.10;2.57;;;;;;;;;;5028749;28;20232;-71
2021/03/13 11:06:02;;;;;;;14.10;3.07;;;;;;;;;;5036794;28;20185;-71
2021/03/13 11:08:30;;;;;;;20.70;3.17;;;;;;;;;;5026407;28;20201;-70
2021/03/13 11:10:58;;;;;;;21.87;3.73;;;;;;;;;;5034460;28;20310;-72
2021/03/13 11:13:24;;;;;;;25.98;3.78;;;;;;;;;;5029600;28;20209;-70
2021/03/13 11:15:50;;;;;;;27.87;4.43;;;;;;;;;;5029095;28;20193;-71
2021/03/13 11:18:16;;;;;;;19.05;3.65;;;;;;;;;;5034995;28;20184;-69
2021/03/13 11:20:43;;;;;;;25.40;3.60;;;;;;;;;;5025319;28;20214;-70
2021/03/13 11:23:09;;;;;;;16.02;3.42;;;;;;;;;;5036332;28;20235;-68
2021/03/13 11:25:35;;;;;;;20.92;3.53;;;;;;;;;;5023779;28;20231;-70
2021/03/13 11:28:00;;;;;;;18.80;2.93;;;;;;;;;;5031585;28;20181;-71
2021/03/13 11:30:26;;;;;;;17.73;3.43;;;;;;;;;;5021145;28;20185;-70
2021/03/13 11:32:52;;;;;;;15.50;3.33;;;;;;;;;;5032552;28;20182;-70
2021/03/13 11:35:19;;;;;;;18.37;3.30;;;;;;;;;;5032218;28;20194;-71
2021/03/13 11:37:48;;;;;;;23.30;3.00;;;;;;;;;;5036508;28;20194;-72
2021/03/13 11:40:15;;;;;;;14.93;2.93;;;;;;;;;;5028659;28;20226;-70
2021/03/13 11:42:40;;;;;;;15.70;3.00;;;;;;;;;;5038385;28;20201;-71
2021/03/13 11:45:08;;;;;;;21.03;2.60;;;;;;;;;;4331451;28;10000767;-70
2021/03/13 11:47:34;;;;;;;17.43;3.60;;;;;;;;;;5032941;28;20185;-70
2021/03/13 11:49:59;;;;;;;21.33;3.20;;;;;;;;;;5040033;28;20169;-70
2021/03/13 11:52:25;;;;;;;25.50;3.50;;;;;;;;;;5026603;28;20182;-70
2021/03/13 11:54:52;;;;;;;18.17;2.93;;;;;;;;;;5030497;28;20217;-71
2021/03/13 11:57:18;;;;;;;19.47;2.87;;;;;;;;;;5026561;28;20814;-70
2021/03/13 11:59:45;;;;;;;19.50;2.77;;;;;;;;;;5029414;28;20269;-69
2021/03/13 12:02:12;;;;;;;16.43;2.83;;;;;;;;;;5025954;28;20193;-70
2021/03/13 12:04:38;;;;;;;21.80;2.83;;;;;;;;;;5025610;28;20681;-70
2021/03/13 12:07:03;;;;;;;23.15;3.58;;;;;;;;;;5026572;28;20254;-69
2021/03/13 12:09:28;;;;;;;18.48;2.85;;;;;;;;;;5030127;28;20190;-69
2021/03/13 12:11:54;;;;;;;18.73;3.08;;;;;;;;;;5025174;28;20219;-69
2021/03/13 12:14:19;;;;;;;14.85;3.50;;;;;;;;;;5029944;28;20188;-70
2021/03/13 12:16:45;;;;;;;15.80;2.67;;;;;;;;;;5031359;28;20252;-74
2021/03/13 12:19:11;;;;;;;14.27;2.03;;;;;;;;;;5031498;28;20195;-69
2021/03/13 12:21:39;;;;;;;13.30;3.00;;;;;;;;;;5032748;28;20715;-69
2021/03/13 12:24:05;;;;;;;16.45;3.30;;;;;;;;;;5018997;28;20761;-70
2021/03/13 12:26:30;;;;;;;14.13;2.30;;;;;;;;;;5030394;28;20220;-70
2021/03/13 12:28:56;;;;;;;10.77;2.20;;;;;;;;;;5026037;28;20229;-69
2021/03/13 12:31:21;;;;;;;13.52;2.22;;;;;;;;;;5027834;28;20174;-70
2021/03/13 12:33:47;;;;;;;7.78;1.92;;;;;;;;;;5023838;28;20200;-71
2021/03/13 12:36:12;;;;;;;9.43;1.40;;;;;;;;;;5035048;28;20193;-70
2021/03/13 12:38:38;;;;;;;7.50;1.80;;;;;;;;;;5028167;28;20233;-71
2021/03/13 12:41:05;;;;;;;7.13;1.73;;;;;;;;;;5035488;28;20600;-70
2021/03/13 12:43:31;;;;;;;9.90;1.60;;;;;;;;;;5027874;28;20612;-69
2021/03/13 12:45:57;;;;;;;11.33;2.07;;;;;;;;;;5033122;28;20239;-68
2021/03/13 12:48:23;;;;;;;14.57;1.70;;;;;;;;;;5022807;28;20673;-70
2021/03/13 12:50:50;;;;;;;8.70;2.00;;;;;;;;;;5034694;28;20190;-70
2021/03/13 12:53:15;;;;;;;21.50;2.80;;;;;;;;;;5032803;28;20274;-70
2021/03/13 12:55:40;;;;;;;14.20;1.93;;;;;;;;;;5026370;28;20653;-69
2021/03/13 12:58:06;;;;;;;11.90;1.77;;;;;;;;;;5034225;28;20259;-69
2021/03/13 13:00:31;;;;;;;11.20;2.03;;;;;;;;;;5027149;28;20215;-71
2021/03/13 13:02:56;;;;;;;8.50;1.60;;;;;;;;;;5034551;28;20181;-70
2021/03/13 13:05:22;;;;;;;14.33;2.30;;;;;;;;;;5022009;28;20274;-70
2021/03/13 13:07:49;;;;;;;7.30;1.50;;;;;;;;;;5032050;28;20192;-69
2021/03/13 13:10:18;;;;;;;8.00;1.43;;;;;;;;;;5023411;28;20186;-69
2021/03/13 13:12:44;;;;;;;10.07;1.47;;;;;;;;;;5032268;28;20185;-67
2021/03/13 13:15:10;;;;;;;12.07;1.67;;;;;;;;;;5025499;28;20200;-70
2021/03/13 13:17:36;;;;;;;5.70;1.47;;;;;;;;;;5034787;28;20511;-70
2021/03/13 13:20:06;;;;;;;8.30;1.30;;;;;;;;;;5027621;28;20680;-68
2021/03/13 13:22:31;;;;;;;9.60;1.67;;;;;;;;;;5034890;28;20178;-70
2021/03/13 13:24:57;;;;;;;7.63;1.73;;;;;;;;;;5037996;28;20657;-69
2021/03/13 13:27:22;;;;;;;9.93;1.58;;;;;;;;;;5029441;28;20194;-70
2021/03/13 13:29:47;;;;;;;7.23;1.63;;;;;;;;;;5033781;28;20186;-70
2021/03/13 13:32:13;;;;;;;7.67;1.00;;;;;;;;;;4675569;28;9999917;-67
2021/03/13 13:34:40;;;;;;;4.28;1.05;;;;;;;;;;5032761;28;20193;-70
2021/03/13 13:37:06;;;;;;;5.67;1.07;;;;;;;;;;5028131;28;20188;-68
2021/03/13 13:39:31;;;;;;;9.50;1.53;;;;;;;;;;5030178;28;20275;-69
2021/03/13 13:41:56;;;;;;;4.40;0.90;;;;;;;;;;5021672;28;20277;-69
2021/03/13 13:44:22;;;;;;;4.00;0.73;;;;;;;;;;5028020;28;20186;-70
2021/03/13 13:46:47;;;;;;;5.75;0.70;;;;;;;;;;5029532;28;20268;-70
2021/03/13 13:49:13;;;;;;;4.83;1.00;;;;;;;;;;5035799;28;20188;-69
2021/03/13 13:51:38;;;;;;;8.17;1.40;;;;;;;;;;5019188;28;20186;-70
2021/03/13 13:54:04;;;;;;;7.80;1.10;;;;;;;;;;5036732;28;20193;-69
2021/03/13 13:56:30;;;;;;;5.00;1.10;;;;;;;;;;5028514;28;20739;-69
2021/03/13 13:58:55;;;;;;;5.83;1.30;;;;;;;;;;5028914;28;20190;-69
2021/03/13 14:01:20;;;;;;;8.60;1.40;;;;;;;;;;5033994;28;20205;-69
2021/03/13 14:03:46;;;;;;;3.43;0.90;;;;;;;;;;5029943;28;20206;-68
2021/03/13 14:06:11;;;;;;;6.97;0.93;;;;;;;;;;5039388;28;20252;-70
2021/03/13 14:08:36;;;;;;;5.87;0.80;;;;;;;;;;5034954;28;20201;-69
2021/03/13 14:11:02;;;;;;;6.67;1.00;;;;;;;;;;5036444;28;20542;-69
2021/03/13 14:13:27;;;;;;;5.50;0.90;;;;;;;;;;5025323;28;20189;-69
2021/03/13 14:15:53;;;;;;;8.10;1.03;;;;;;;;;;5037288;28;20196;-69
2021/03/13 14:18:18;;;;;;;5.23;1.10;;;;;;;;;;5033536;28;20566;-70
2021/03/13 14:20:43;;;;;;;7.00;1.00;;;;;;;;;;5035181;28;20554;-70
2021/03/13 14:23:09;;;;;;;8.33;1.20;;;;;;;;;;5033493;28;20637;-69
2021/03/13 14:25:34;;;;;;;7.22;1.17;;;;;;;;;;5034829;28;20530;-69
2021/03/13 14:27:59;;;;;;;6.88;1.13;;;;;;;;;;5038617;28;20189;-69
2021/03/13 14:30:25;;;;;;;6.20;1.20;;;;;;;;;;5023313;28;20188;-69
2021/03/13 14:32:50;;;;;;;8.18;1.15;;;;;;;;;;5026179;28;20209;-69
2021/03/13 14:35:18;;;;;;;6.68;1.00;;;;;;;;;;5026874;28;20249;-69
2021/03/13 14:37:44;;;;;;;4.80;1.38;;;;;;;;;;5034014;28;20662;-69
2021/03/13 14:40:12;;;;;;;5.22;0.90;;;;;;;;;;5024935;28;20225;-69
2021/03/13 14:42:38;;;;;;;6.47;1.25;;;;;;;;;;5037008;28;20649;-69
2021/03/13 14:45:05;;;;;;;11.40;1.40;;;;;;;;;;5029879;28;20195;-70